Time;durP1;ratioP1;P1;durP2;ratioP2;P2;SDS_P1;SDS_P2;PMS_P1;PMS_P2;Temp;Humidity;BMP_temperature;BMP_pressure;BME280_temperature;BME280_humidity;BME280_pressure;Samples;Min_cycle;Max_cycle;Signal;HPM_P1;HPM_P2
2023/10/13 00:00:59;;;;;;;0.90;0.90;;;;;;;;;;5016308;28;20032;-76
2023/10/13 00:03:31;;;;;;;1.30;1.20;;;;;;;;;;5017333;28;20046;-75
2023/10/13 00:06:02;;;;;;;0.87;0.87;;;;;;;;;;5017014;28;20030;-75
2023/10/13 00:08:29;;;;;;;0.60;0.60;;;;;;;;;;5018020;28;20101;-76
2023/10/13 00:11:02;;;;;;;0.88;0.88;;;;;;;;;;5016219;28;20100;-75
2023/10/13 00:13:31;;;;;;;1.05;0.90;;;;;;;;;;5015179;28;20018;-75
2023/10/13 00:15:58;;;;;;;0.98;0.98;;;;;;;;;;5013362;28;20109;-75
2023/10/13 00:18:32;;;;;;;0.82;0.82;;;;;;;;;;5013323;28;20036;-75
2023/10/13 00:20:59;;;;;;;1.15;1.05;;;;;;;;;;5013215;28;20026;-75
2023/10/13 00:23:27;;;;;;;0.93;0.93;;;;;;;;;;5013314;28;20026;-76
2023/10/13 00:25:59;;;;;;;0.63;0.63;;;;;;;;;;5013440;28;20026;-75
2023/10/13 00:28:46;;;;;;;0.98;0.60;;;;;;;;;;5013411;28;20488;-74
2023/10/13 00:31:13;;;;;;;0.95;0.93;;;;;;;;;;5013776;28;20026;-75
2023/10/13 00:33:46;;;;;;;0.60;0.60;;;;;;;;;;5013692;28;20026;-75
2023/10/13 00:36:19;;;;;;;0.50;0.50;;;;;;;;;;5013929;28;20026;-75
2023/10/13 00:38:48;;;;;;;0.95;0.95;;;;;;;;;;5013783;28;20026;-75
2023/10/13 00:41:15;;;;;;;0.73;0.73;;;;;;;;;;5013740;28;20022;-74
2023/10/13 00:43:45;;;;;;;0.68;0.68;;;;;;;;;;5014097;28;20178;-75
2023/10/13 00:46:13;;;;;;;0.60;0.60;;;;;;;;;;5013232;28;20024;-76
2023/10/13 00:48:54;;;;;;;0.60;0.60;;;;;;;;;;5012944;28;20393;-75
2023/10/13 00:51:34;;;;;;;0.70;0.70;;;;;;;;;;4995001;28;20030;-75
2023/10/13 00:54:07;;;;;;;0.43;0.43;;;;;;;;;;5013167;28;20389;-76
2023/10/13 00:56:34;;;;;;;0.43;0.43;;;;;;;;;;4994626;28;20440;-75
2023/10/13 00:59:02;;;;;;;0.57;0.57;;;;;;;;;;5012790;28;20389;-75
2023/10/13 01:01:32;;;;;;;0.50;0.50;;;;;;;;;;5012693;28;20153;-74
2023/10/13 01:04:03;;;;;;;0.60;0.60;;;;;;;;;;5012144;28;20388;-75
2023/10/13 01:06:29;;;;;;;0.60;0.60;;;;;;;;;;5012463;28;20366;-75
2023/10/13 01:08:59;;;;;;;0.50;0.50;;;;;;;;;;5012635;28;20049;-75
2023/10/13 01:11:29;;;;;;;0.40;0.40;;;;;;;;;;5012555;28;20394;-75
2023/10/13 01:13:56;;;;;;;0.50;0.50;;;;;;;;;;5012391;28;20084;-75
2023/10/13 01:16:26;;;;;;;0.40;0.40;;;;;;;;;;5013810;28;20029;-75
2023/10/13 01:18:52;;;;;;;0.75;0.75;;;;;;;;;;4998285;28;20021;-74
2023/10/13 01:21:27;;;;;;;0.68;0.68;;;;;;;;;;5015953;28;20040;-75
2023/10/13 01:23:53;;;;;;;0.75;0.75;;;;;;;;;;5015614;28;20481;-74
2023/10/13 01:26:26;;;;;;;0.60;0.60;;;;;;;;;;5015958;28;20081;-74
2023/10/13 01:28:57;;;;;;;0.95;0.60;;;;;;;;;;4997796;28;20026;-75
2023/10/13 01:31:29;;;;;;;0.50;0.50;;;;;;;;;;5015828;28;20040;-76
2023/10/13 01:33:58;;;;;;;0.75;0.68;;;;;;;;;;4997054;28;20396;-75
2023/10/13 01:36:25;;;;;;;0.50;0.50;;;;;;;;;;5015185;28;20374;-75
2023/10/13 01:38:51;;;;;;;0.63;0.52;;;;;;;;;;5015489;28;20029;-75
2023/10/13 01:41:17;;;;;;;0.60;0.60;;;;;;;;;;5015313;28;20417;-75
2023/10/13 01:43:43;;;;;;;0.68;0.68;;;;;;;;;;5014851;28;20030;-75
2023/10/13 01:46:11;;;;;;;0.52;0.52;;;;;;;;;;5014760;28;20026;-75
2023/10/13 01:48:40;;;;;;;0.52;0.52;;;;;;;;;;5015534;28;20037;-74
2023/10/13 01:51:09;;;;;;;0.40;0.40;;;;;;;;;;5018266;28;20022;-75
2023/10/13 01:53:36;;;;;;;0.70;0.60;;;;;;;;;;5014892;28;20068;-74
2023/10/13 01:56:05;;;;;;;0.77;0.50;;;;;;;;;;5018137;28;20026;-75
2023/10/13 01:58:31;;;;;;;0.50;0.50;;;;;;;;;;5015015;28;20024;-74
2023/10/13 02:00:59;;;;;;;0.82;0.57;;;;;;;;;;5015907;28;20026;-74
2023/10/13 02:03:29;;;;;;;0.40;0.40;;;;;;;;;;5015695;28;20360;-75
2023/10/13 02:05:58;;;;;;;0.50;0.50;;;;;;;;;;5015243;28;20026;-75
2023/10/13 02:08:24;;;;;;;0.57;0.57;;;;;;;;;;5015452;28;20021;-75
2023/10/13 02:10:51;;;;;;;1.75;0.82;;;;;;;;;;5016667;28;20044;-75
2023/10/13 02:13:17;;;;;;;0.60;0.60;;;;;;;;;;5017418;28;20388;-74
2023/10/13 02:15:48;;;;;;;0.40;0.40;;;;;;;;;;5029775;28;20029;-75
2023/10/13 02:18:26;;;;;;;0.60;0.60;;;;;;;;;;5034709;28;20044;-75
2023/10/13 02:20:56;;;;;;;0.70;0.60;;;;;;;;;;5028607;28;20045;-75
2023/10/13 02:23:29;;;;;;;0.40;0.40;;;;;;;;;;5004334;28;20022;-75
2023/10/13 02:26:03;;;;;;;0.50;0.50;;;;;;;;;;5033751;28;20034;-75
2023/10/13 02:28:33;;;;;;;0.70;0.70;;;;;;;;;;5034815;28;20014;-76
2023/10/13 02:31:03;;;;;;;0.63;0.63;;;;;;;;;;5035256;28;20053;-75
2023/10/13 02:33:32;;;;;;;0.40;0.40;;;;;;;;;;5034775;28;20014;-75
2023/10/13 02:35:59;;;;;;;0.80;0.80;;;;;;;;;;5015311;28;20053;-76
2023/10/13 02:38:42;;;;;;;0.90;0.75;;;;;;;;;;5014310;28;20022;-76
2023/10/13 02:41:12;;;;;;;0.75;0.75;;;;;;;;;;5014330;28;20029;-76
2023/10/13 02:43:38;;;;;;;0.85;0.82;;;;;;;;;;5013810;28;20026;-74
2023/10/13 02:46:05;;;;;;;0.82;0.80;;;;;;;;;;5013578;28;20484;-74
2023/10/13 02:48:41;;;;;;;0.70;0.60;;;;;;;;;;5013851;28;20022;-75
2023/10/13 02:51:17;;;;;;;0.80;0.80;;;;;;;;;;5013648;28;20025;-76
2023/10/13 02:53:49;;;;;;;0.80;0.80;;;;;;;;;;5013402;28;20026;-74
2023/10/13 02:56:20;;;;;;;0.70;0.70;;;;;;;;;;5013589;28;20056;-76
2023/10/13 02:58:52;;;;;;;0.75;0.75;;;;;;;;;;5013423;28;20022;-76
2023/10/13 03:01:18;;;;;;;;;;;;;;;;;;5014169;28;20018;-76
2023/10/13 03:03:47;;;;;;;0.70;0.60;;;;;;;;;;5013389;28;19917;-77
2023/10/13 03:06:14;;;;;;;0.90;0.73;;;;;;;;;;5014183;28;20074;-76
2023/10/13 03:08:40;;;;;;;0.90;0.90;;;;;;;;;;4995966;28;20029;-75
2023/10/13 03:11:09;;;;;;;0.85;0.85;;;;;;;;;;5013420;28;20400;-75
2023/10/13 03:13:35;;;;;;;2.28;1.00;;;;;;;;;;5013250;28;20026;-75
2023/10/13 03:16:04;;;;;;;0.90;0.90;;;;;;;;;;5013068;28;20109;-75
2023/10/13 03:18:33;;;;;;;0.60;0.60;;;;;;;;;;5013093;28;20041;-75
2023/10/13 03:21:02;;;;;;;0.70;0.70;;;;;;;;;;5013202;28;20018;-75
2023/10/13 03:23:28;;;;;;;0.70;0.70;;;;;;;;;;5013064;28;20054;-76
2023/10/13 03:25:55;;;;;;;1.33;0.88;;;;;;;;;;5012663;28;20030;-75
2023/10/13 03:28:25;;;;;;;0.70;0.70;;;;;;;;;;5013194;28;20108;-75
2023/10/13 03:30:55;;;;;;;1.75;0.90;;;;;;;;;;5013243;28;20044;-75
2023/10/13 03:33:26;;;;;;;0.43;0.43;;;;;;;;;;5013005;28;20022;-75
2023/10/13 03:36:05;;;;;;;0.60;0.60;;;;;;;;;;5012816;28;20473;-75
2023/10/13 03:38:36;;;;;;;0.70;0.70;;;;;;;;;;4992824;28;20023;-75
2023/10/13 03:41:18;;;;;;;1.02;0.75;;;;;;;;;;4992498;28;20098;-75
2023/10/13 03:43:45;;;;;;;0.90;0.80;;;;;;;;;;4992826;28;20052;-76
2023/10/13 03:46:11;;;;;;;0.90;0.73;;;;;;;;;;4992961;28;20105;-76
2023/10/13 03:48:55;;;;;;;1.88;1.00;;;;;;;;;;5012002;28;20029;-75
2023/10/13 03:51:21;;;;;;;0.90;0.88;;;;;;;;;;5012493;28;20025;-76
2023/10/13 03:53:54;;;;;;;0.70;0.68;;;;;;;;;;5012229;28;20037;-75
2023/10/13 03:56:38;;;;;;;1.17;0.70;;;;;;;;;;5012629;28;20441;-75
2023/10/13 04:04:14;;;;;;;0.80;0.70;;;;;;;;;;5012656;28;20466;-77
2023/10/13 04:17:22;;;;;;;1.38;1.10;;;;;;;;;;5012664;28;19916;-75
2023/10/13 04:36:13;;;;;;;1.50;1.10;;;;;;;;;;5012458;28;20132;-75
2023/10/13 04:41:39;;;;;;;3.83;1.20;;;;;;;;;;5011940;28;20091;-75
2023/10/13 04:49:35;;;;;;;1.30;0.88;;;;;;;;;;5012078;28;20397;-75
2023/10/13 05:51:33;;;;;;;;;;;;;;;;;;5017842;28;20038;-75
2023/10/13 06:30:00;;;;;;;2.80;1.02;;;;;;;;;;5015189;28;20424;-76
2023/10/13 06:32:27;;;;;;;1.48;1.05;;;;;;;;;;5014664;28;20030;-76
2023/10/13 06:35:07;;;;;;;1.35;1.00;;;;;;;;;;5014899;28;20030;-76
2023/10/13 06:37:34;;;;;;;1.75;1.20;;;;;;;;;;4996860;28;20022;-75
2023/10/13 06:42:49;;;;;;;1.83;1.30;;;;;;;;;;5015389;28;20503;-75
2023/10/13 06:45:17;;;;;;;1.17;1.08;;;;;;;;;;5000010;28;20030;-75
2023/10/13 06:47:43;;;;;;;1.70;1.20;;;;;;;;;;5000329;28;20030;-75
2023/10/13 06:50:16;;;;;;;1.00;0.95;;;;;;;;;;5016234;28;20373;-76
2023/10/13 06:52:43;;;;;;;1.30;0.90;;;;;;;;;;5017426;28;20030;-76
2023/10/13 06:55:17;;;;;;;2.58;1.15;;;;;;;;;;5018088;28;20358;-75
2023/10/13 06:57:43;;;;;;;1.85;1.20;;;;;;;;;;4998351;28;20033;-76
2023/10/13 07:00:19;;;;;;;1.58;1.20;;;;;;;;;;4997971;28;20026;-76
2023/10/13 07:02:46;;;;;;;1.08;0.98;;;;;;;;;;5016018;28;20022;-75
2023/10/13 07:05:14;;;;;;;1.83;1.15;;;;;;;;;;5021603;28;20477;-76
2023/10/13 07:07:40;;;;;;;1.48;1.38;;;;;;;;;;5017449;28;20079;-76
2023/10/13 07:10:16;;;;;;;2.53;1.25;;;;;;;;;;5015638;28;20381;-76
2023/10/13 07:12:49;;;;;;;1.65;1.35;;;;;;;;;;5015572;28;20037;-76
2023/10/13 07:17:44;;;;;;;2.10;1.60;;;;;;;;;;5017837;28;20169;-77
2023/10/13 07:20:44;;;;;;;1.15;1.08;;;;;;;;;;5017684;28;20369;-76
2023/10/13 07:23:03;;;;;;;1.30;1.20;;;;;;;;;;5013929;28;20030;-75
2023/10/13 07:25:32;;;;;;;0.98;0.98;;;;;;;;;;5017258;28;20038;-77
2023/10/13 07:27:59;;;;;;;2.33;1.27;;;;;;;;;;5001419;28;20030;-77
2023/10/13 07:30:30;;;;;;;1.17;1.08;;;;;;;;;;5019251;28;20030;-77
2023/10/13 07:32:59;;;;;;;1.30;1.05;;;;;;;;;;5018170;28;20041;-76
2023/10/13 07:35:26;;;;;;;1.48;1.10;;;;;;;;;;5018838;28;20089;-76
2023/10/13 07:37:53;;;;;;;1.23;1.05;;;;;;;;;;5020144;28;20026;-77
2023/10/13 07:42:52;;;;;;;1.10;1.00;;;;;;;;;;5018515;28;20033;-77
2023/10/13 07:45:21;;;;;;;1.65;1.30;;;;;;;;;;5018900;28;20104;-76
2023/10/13 07:47:49;;;;;;;1.10;1.00;;;;;;;;;;5017696;28;20021;-77
2023/10/13 07:50:23;;;;;;;2.28;1.23;;;;;;;;;;5019495;28;20086;-77
2023/10/13 07:53:00;;;;;;;1.20;1.10;;;;;;;;;;5020809;28;20497;-77
2023/10/13 07:55:26;;;;;;;1.30;1.00;;;;;;;;;;4998782;28;20030;-77
2023/10/13 07:57:56;;;;;;;1.92;1.25;;;;;;;;;;4996673;28;20114;-76
2023/10/13 08:05:58;;;;;;;1.15;1.02;;;;;;;;;;4997878;28;20090;-76
2023/10/13 08:08:35;;;;;;;2.00;1.05;;;;;;;;;;4995983;28;20042;-76
2023/10/13 08:11:08;;;;;;;2.10;1.15;;;;;;;;;;4995830;28;20022;-76
2023/10/13 08:13:36;;;;;;;1.00;1.00;;;;;;;;;;4994181;28;20030;-76
2023/10/13 08:16:09;;;;;;;1.52;1.30;;;;;;;;;;4994830;28;20033;-76
2023/10/13 08:18:36;;;;;;;1.67;1.50;;;;;;;;;;4978396;28;20022;-75
2023/10/13 08:21:15;;;;;;;1.48;1.20;;;;;;;;;;4978838;28;20030;-77
2023/10/13 08:26:29;;;;;;;2.22;1.30;;;;;;;;;;5016278;28;20042;-76
2023/10/13 08:45:53;;;;;;;2.22;1.30;;;;;;;;;;5038514;28;20146;-76
2023/10/13 08:48:16;;;;;;;1.48;1.30;;;;;;;;;;5024265;28;20041;-76
2023/10/13 08:53:31;;;;;;;1.65;1.55;;;;;;;;;;5019573;28;20044;-77
2023/10/13 08:56:33;;;;;;;1.80;1.70;;;;;;;;;;5019612;28;20026;-76
2023/10/13 08:59:05;;;;;;;;;;;;;;;;;;5021692;28;20014;-77
2023/10/13 09:12:18;;;;;;;2.22;1.70;;;;;;;;;;5025650;28;20515;-77
2023/10/13 09:14:57;;;;;;;2.15;1.95;;;;;;;;;;5024211;28;20154;-77
2023/10/13 09:20:11;;;;;;;2.05;1.50;;;;;;;;;;5017526;28;20191;-77
2023/10/13 09:22:37;;;;;;;1.50;1.40;;;;;;;;;;5017980;28;20025;-76
2023/10/13 09:25:13;;;;;;;3.85;1.55;;;;;;;;;;5017835;28;20181;-76
2023/10/13 09:27:39;;;;;;;1.70;1.60;;;;;;;;;;5017447;28;20053;-77
2023/10/13 09:33:15;;;;;;;1.30;1.20;;;;;;;;;;5008422;28;20029;-77
2023/10/13 09:35:59;;;;;;;1.35;1.25;;;;;;;;;;5018776;28;20065;-76
2023/10/13 09:38:25;;;;;;;1.42;1.27;;;;;;;;;;5001500;28;20041;-76
2023/10/13 09:40:57;;;;;;;1.25;1.13;;;;;;;;;;5018734;28;20470;-77
2023/10/13 09:43:25;;;;;;;1.80;1.42;;;;;;;;;;5016942;28;20044;-75
2023/10/13 09:46:07;;;;;;;1.42;1.25;;;;;;;;;;5017448;28;20025;-76
2023/10/13 09:48:35;;;;;;;1.45;1.10;;;;;;;;;;5017375;28;20052;-76
2023/10/13 09:51:03;;;;;;;2.15;1.50;;;;;;;;;;5018099;28;20076;-77
2023/10/13 09:53:31;;;;;;;1.10;1.00;;;;;;;;;;5018578;28;20104;-77
2023/10/13 09:56:11;;;;;;;3.30;1.55;;;;;;;;;;5019378;28;20033;-76
2023/10/13 09:58:46;;;;;;;1.52;1.42;;;;;;;;;;5019886;28;20034;-77
2023/10/13 10:01:20;;;;;;;2.83;1.50;;;;;;;;;;5020430;28;20022;-77
2023/10/13 10:04:07;;;;;;;2.53;1.65;;;;;;;;;;5023860;28;20077;-77
2023/10/13 10:06:43;;;;;;;1.67;1.20;;;;;;;;;;5019107;28;20477;-77
2023/10/13 10:09:14;;;;;;;1.70;1.13;;;;;;;;;;5006347;28;20022;-77
2023/10/13 10:12:00;;;;;;;1.80;1.30;;;;;;;;;;5030024;28;20041;-76
2023/10/13 10:14:42;;;;;;;2.13;1.27;;;;;;;;;;5028659;28;20093;-77
2023/10/13 10:17:08;;;;;;;;;;;;;;;;;;5034431;28;20027;-76
2023/10/13 10:19:55;;;;;;;1.55;1.20;;;;;;;;;;5035295;28;19940;-76
2023/10/13 10:22:33;;;;;;;2.13;1.50;;;;;;;;;;5007803;28;20026;-77
2023/10/13 10:24:59;;;;;;;3.13;1.50;;;;;;;;;;5016485;28;20068;-77
2023/10/13 10:27:26;;;;;;;2.47;1.58;;;;;;;;;;5018372;28;20091;-77
2023/10/13 10:29:56;;;;;;;3.13;1.52;;;;;;;;;;5016359;28;20046;-77
2023/10/13 10:32:22;;;;;;;3.20;1.33;;;;;;;;;;5017149;28;20022;-75
2023/10/13 10:34:48;;;;;;;1.75;1.45;;;;;;;;;;5020953;28;20057;-77
2023/10/13 10:37:15;;;;;;;2.03;1.80;;;;;;;;;;5016294;28;20054;-76
2023/10/13 10:39:49;;;;;;;2.75;1.35;;;;;;;;;;4998390;28;20527;-77
2023/10/13 10:42:17;;;;;;;2.63;1.30;;;;;;;;;;5009503;28;20034;-77
2023/10/13 10:44:44;;;;;;;2.55;1.35;;;;;;;;;;5030849;28;20077;-76
2023/10/13 10:47:30;;;;;;;2.13;1.50;;;;;;;;;;5033218;28;20018;-76
2023/10/13 10:50:07;;;;;;;1.83;1.40;;;;;;;;;;5015847;28;20121;-75
2023/10/13 10:52:37;;;;;;;2.20;1.40;;;;;;;;;;5015678;28;20053;-76
2023/10/13 10:55:07;;;;;;;1.70;1.38;;;;;;;;;;5013255;28;20022;-77
2023/10/13 10:57:37;;;;;;;1.85;1.08;;;;;;;;;;5018635;28;20029;-76
2023/10/13 11:00:11;;;;;;;1.65;1.20;;;;;;;;;;5016072;28;20037;-77
2023/10/13 11:02:38;;;;;;;3.25;1.30;;;;;;;;;;4997760;28;20018;-77
2023/10/13 11:05:06;;;;;;;2.90;1.45;;;;;;;;;;5001407;28;20050;-76
2023/10/13 11:07:34;;;;;;;1.15;1.00;;;;;;;;;;4996506;28;20062;-76
2023/10/13 11:10:26;;;;;;;1.33;1.23;;;;;;;;;;4979203;28;20030;-77
2023/10/13 11:12:56;;;;;;;2.20;1.67;;;;;;;;;;5000377;28;20104;-77
2023/10/13 11:15:23;;;;;;;1.38;1.23;;;;;;;;;;5001950;28;20036;-77
2023/10/13 11:17:58;;;;;;;1.60;1.10;;;;;;;;;;5017248;28;20041;-78
2023/10/13 11:20:39;;;;;;;2.13;1.38;;;;;;;;;;5016178;28;20018;-77
2023/10/13 11:23:11;;;;;;;1.42;1.17;;;;;;;;;;5000272;28;20049;-77
2023/10/13 11:25:37;;;;;;;2.13;1.40;;;;;;;;;;5016692;28;20037;-75
2023/10/13 11:28:20;;;;;;;2.00;1.40;;;;;;;;;;5016185;28;20400;-76
2023/10/13 11:30:50;;;;;;;2.65;1.40;;;;;;;;;;5021489;28;20527;-76
2023/10/13 11:33:29;;;;;;;1.92;1.35;;;;;;;;;;5009009;28;20026;-77
2023/10/13 11:36:02;;;;;;;2.63;1.70;;;;;;;;;;5021482;28;20100;-78
2023/10/13 11:38:34;;;;;;;1.65;1.20;;;;;;;;;;5010043;28;20018;-77
2023/10/13 11:48:36;;;;;;;4.20;1.42;;;;;;;;;;5028878;28;20037;-76
2023/10/13 11:51:07;;;;;;;2.88;1.83;;;;;;;;;;5028229;28;20026;-76
2023/10/13 11:53:34;;;;;;;1.90;1.67;;;;;;;;;;5025042;28;20082;-77
2023/10/13 11:56:01;;;;;;;4.75;1.58;;;;;;;;;;5027567;28;20285;-77
2023/10/13 11:58:31;;;;;;;3.13;1.58;;;;;;;;;;5028265;28;20029;-76
2023/10/13 12:11:54;;;;;;;1.05;0.95;;;;;;;;;;5003786;28;20073;-77
2023/10/13 12:14:36;;;;;;;;;;;;;;;;;;5014517;28;20029;-77
2023/10/13 12:17:10;;;;;;;2.10;1.60;;;;;;;;;;5014555;28;20237;-77
2023/10/13 12:19:38;;;;;;;3.22;1.60;;;;;;;;;;5014593;28;20030;-76
2023/10/13 12:22:08;;;;;;;2.92;1.60;;;;;;;;;;5013969;28;20072;-76
2023/10/13 12:27:00;;;;;;;2.00;1.33;;;;;;;;;;5013224;28;20084;-76
2023/10/13 12:29:34;;;;;;;5.10;2.00;;;;;;;;;;5013734;28;20073;-78
2023/10/13 12:32:07;;;;;;;2.20;1.30;;;;;;;;;;5014048;28;20084;-77
2023/10/13 12:37:38;;;;;;;4.00;2.17;;;;;;;;;;5014047;28;20072;-77
2023/10/13 12:51:20;;;;;;;3.78;2.05;;;;;;;;;;5013615;28;20037;-77
2023/10/13 12:53:48;;;;;;;7.75;2.65;;;;;;;;;;5012923;28;20028;-77
2023/10/13 12:56:15;;;;;;;2.70;2.00;;;;;;;;;;5012830;28;20030;-76
2023/10/13 12:58:41;;;;;;;4.25;2.42;;;;;;;;;;4995114;28;20109;-77
2023/10/13 13:01:08;;;;;;;2.92;2.00;;;;;;;;;;5013702;28;20042;-77
2023/10/13 13:03:34;;;;;;;2.65;1.83;;;;;;;;;;5013092;28;20046;-76
2023/10/13 13:06:07;;;;;;;2.13;1.75;;;;;;;;;;5013224;28;20421;-77
2023/10/13 13:08:35;;;;;;;1.80;1.40;;;;;;;;;;5014019;28;20488;-77
2023/10/13 13:11:01;;;;;;;4.20;1.90;;;;;;;;;;5014127;28;20022;-76
2023/10/13 13:13:28;;;;;;;1.40;1.30;;;;;;;;;;5017829;28;20068;-76
2023/10/13 13:15:54;;;;;;;1.63;1.23;;;;;;;;;;5017095;28;20026;-76
2023/10/13 13:18:20;;;;;;;2.92;1.60;;;;;;;;;;5018839;28;20018;-76
2023/10/13 13:20:55;;;;;;;1.38;1.20;;;;;;;;;;5017318;28;20026;-77
2023/10/13 13:23:25;;;;;;;3.33;1.70;;;;;;;;;;4999766;28;20046;-77
2023/10/13 13:25:51;;;;;;;1.90;1.70;;;;;;;;;;5016833;28;20029;-76
2023/10/13 13:28:18;;;;;;;2.45;1.80;;;;;;;;;;5017385;28;20018;-77
2023/10/13 13:30:46;;;;;;;2.67;1.67;;;;;;;;;;5017309;28;20054;-76
2023/10/13 13:33:12;;;;;;;1.45;1.35;;;;;;;;;;5017107;28;20029;-76
2023/10/13 13:35:48;;;;;;;5.45;2.17;;;;;;;;;;5016569;28;20029;-77
2023/10/13 13:38:29;;;;;;;3.70;2.38;;;;;;;;;;5018435;28;20018;-77
2023/10/13 13:40:55;;;;;;;2.45;1.88;;;;;;;;;;5018208;28;20025;-77
2023/10/13 13:43:31;;;;;;;2.33;1.50;;;;;;;;;;5017930;28;20082;-77
2023/10/13 13:46:00;;;;;;;2.40;2.03;;;;;;;;;;5021163;28;20026;-77
2023/10/13 13:48:27;;;;;;;2.85;1.60;;;;;;;;;;5002846;28;20040;-76
2023/10/13 13:51:03;;;;;;;4.72;1.85;;;;;;;;;;5019192;28;20101;-77
2023/10/13 13:53:32;;;;;;;5.18;2.30;;;;;;;;;;5018380;28;20018;-76
2023/10/13 13:56:00;;;;;;;5.70;1.67;;;;;;;;;;5001430;28;20443;-77
2023/10/13 13:58:26;;;;;;;2.30;1.45;;;;;;;;;;5025367;28;20378;-77
2023/10/13 14:00:58;;;;;;;3.63;2.30;;;;;;;;;;5029857;28;20034;-76
2023/10/13 14:03:33;;;;;;;2.10;1.90;;;;;;;;;;5023054;28;20041;-77
2023/10/13 14:06:00;;;;;;;4.35;2.00;;;;;;;;;;5000615;28;20026;-76
2023/10/13 14:08:27;;;;;;;2.08;1.58;;;;;;;;;;5018719;28;20033;-78
2023/10/13 14:13:48;;;;;;;2.45;1.55;;;;;;;;;;5022047;28;20045;-76
2023/10/13 14:16:18;;;;;;;1.30;1.20;;;;;;;;;;5017293;28;20026;-78
2023/10/13 14:18:45;;;;;;;1.70;1.58;;;;;;;;;;5019602;28;20029;-76
2023/10/13 14:21:16;;;;;;;1.60;1.50;;;;;;;;;;5020398;28;20502;-76
2023/10/13 14:23:44;;;;;;;1.10;1.10;;;;;;;;;;5002161;28;20026;-76
2023/10/13 14:26:12;;;;;;;1.75;1.30;;;;;;;;;;5019789;28;20025;-77
2023/10/13 14:28:50;;;;;;;1.35;1.25;;;;;;;;;;5018075;28;20026;-78
2023/10/13 14:31:16;;;;;;;1.13;0.90;;;;;;;;;;5023205;28;20026;-77
2023/10/13 14:33:42;;;;;;;1.95;1.15;;;;;;;;;;5003889;28;20029;-77
2023/10/13 14:36:10;;;;;;;2.05;1.40;;;;;;;;;;5021404;28;20033;-76
2023/10/13 14:38:36;;;;;;;1.75;1.25;;;;;;;;;;5019520;28;20029;-77
2023/10/13 14:41:02;;;;;;;1.30;1.20;;;;;;;;;;5002825;28;20032;-77
2023/10/13 14:43:28;;;;;;;1.60;1.45;;;;;;;;;;5020255;28;20048;-77
2023/10/13 14:45:54;;;;;;;1.63;1.15;;;;;;;;;;5002128;28;20034;-77
2023/10/13 14:48:24;;;;;;;1.20;1.10;;;;;;;;;;5001704;28;20148;-75
2023/10/13 14:50:50;;;;;;;0.90;0.90;;;;;;;;;;5026838;28;20473;-75
2023/10/13 14:53:19;;;;;;;1.00;1.00;;;;;;;;;;5029785;28;20026;-76
2023/10/13 14:55:45;;;;;;;1.63;1.10;;;;;;;;;;5036778;28;20048;-76
2023/10/13 14:58:15;;;;;;;3.63;1.60;;;;;;;;;;5037369;28;20042;-76
2023/10/13 15:00:45;;;;;;;3.22;1.70;;;;;;;;;;5010381;28;20030;-77
2023/10/13 15:03:11;;;;;;;1.35;1.13;;;;;;;;;;4997739;28;20170;-76
2023/10/13 15:05:43;;;;;;;2.63;1.42;;;;;;;;;;4980292;28;20022;-76
2023/10/13 15:08:10;;;;;;;2.95;1.70;;;;;;;;;;5000152;28;20018;-76
2023/10/13 15:10:36;;;;;;;1.33;1.23;;;;;;;;;;5013986;28;20030;-77
2023/10/13 15:13:05;;;;;;;2.58;1.67;;;;;;;;;;5017424;28;20044;-75
2023/10/13 15:15:32;;;;;;;7.68;1.83;;;;;;;;;;5025749;28;20076;-76
2023/10/13 15:17:58;;;;;;;3.88;1.52;;;;;;;;;;5008984;28;20501;-76
2023/10/13 15:20:24;;;;;;;2.58;1.70;;;;;;;;;;5027545;28;20122;-76
2023/10/13 15:22:59;;;;;;;1.70;1.58;;;;;;;;;;5027761;28;20153;-76
2023/10/13 15:25:28;;;;;;;1.38;1.23;;;;;;;;;;5028126;28;20030;-76
2023/10/13 15:28:05;;;;;;;1.48;1.35;;;;;;;;;;5023944;28;20160;-76
2023/10/13 15:30:57;;;;;;;1.48;1.27;;;;;;;;;;4998140;28;20400;-77
2023/10/13 15:33:25;;;;;;;2.05;1.60;;;;;;;;;;5018061;28;20076;-76
2023/10/13 15:35:51;;;;;;;1.33;1.23;;;;;;;;;;5020339;28;20049;-78
2023/10/13 15:38:20;;;;;;;1.77;1.67;;;;;;;;;;5018990;28;20125;-76
2023/10/13 15:40:47;;;;;;;1.35;1.25;;;;;;;;;;5000840;28;20428;-76
2023/10/13 15:43:13;;;;;;;1.98;1.70;;;;;;;;;;5019421;28;20076;-77
2023/10/13 15:45:39;;;;;;;2.17;1.27;;;;;;;;;;5016210;28;20045;-77
2023/10/13 15:48:06;;;;;;;1.60;1.35;;;;;;;;;;5016802;28;20025;-76
2023/10/13 15:50:39;;;;;;;1.83;1.42;;;;;;;;;;4998021;28;20555;-78
2023/10/13 15:53:06;;;;;;;1.30;1.10;;;;;;;;;;5015407;28;20022;-78
2023/10/13 15:55:36;;;;;;;1.60;1.23;;;;;;;;;;4997047;28;20061;-76
2023/10/13 15:58:02;;;;;;;2.10;1.10;;;;;;;;;;5015125;28;20370;-77
2023/10/13 16:00:29;;;;;;;1.00;1.00;;;;;;;;;;5014518;28;20040;-76
2023/10/13 16:02:58;;;;;;;1.40;1.15;;;;;;;;;;5014503;28;20108;-76
2023/10/13 16:05:29;;;;;;;0.90;0.90;;;;;;;;;;5014175;28;20477;-76
2023/10/13 16:07:55;;;;;;;0.90;0.85;;;;;;;;;;5014349;28;20426;-77
2023/10/13 16:10:24;;;;;;;1.38;1.20;;;;;;;;;;5014179;28;20033;-77
2023/10/13 16:12:50;;;;;;;0.98;0.98;;;;;;;;;;5013593;28;20516;-76
2023/10/13 16:15:21;;;;;;;1.20;1.15;;;;;;;;;;4996310;28;20037;-76
2023/10/13 16:17:47;;;;;;;0.90;0.90;;;;;;;;;;5014179;28;20528;-76
2023/10/13 16:20:16;;;;;;;1.20;1.10;;;;;;;;;;5013921;28;20033;-77
2023/10/13 16:22:43;;;;;;;0.85;0.85;;;;;;;;;;5014743;28;20060;-78
2023/10/13 16:25:13;;;;;;;1.08;1.00;;;;;;;;;;5015501;28;20101;-75
2023/10/13 16:27:42;;;;;;;1.48;0.95;;;;;;;;;;5014033;28;20030;-77
2023/10/13 16:30:10;;;;;;;2.45;1.30;;;;;;;;;;5014055;28;20029;-75
2023/10/13 16:32:36;;;;;;;1.90;1.38;;;;;;;;;;5014330;28;20033;-77
2023/10/13 16:35:05;;;;;;;1.38;1.27;;;;;;;;;;5014666;28;20076;-75
2023/10/13 16:37:34;;;;;;;1.50;1.40;;;;;;;;;;5014031;28;20025;-76
2023/10/13 16:40:04;;;;;;;2.50;1.63;;;;;;;;;;4995609;28;20029;-76
2023/10/13 16:42:33;;;;;;;2.58;1.40;;;;;;;;;;5014036;28;20022;-76
2023/10/13 16:45:14;;;;;;;1.45;1.27;;;;;;;;;;5013453;28;20341;-76
2023/10/13 16:47:42;;;;;;;1.13;1.05;;;;;;;;;;5015959;28;20076;-77
2023/10/13 16:50:08;;;;;;;1.42;1.33;;;;;;;;;;4999739;28;20030;-77
2023/10/13 16:52:34;;;;;;;1.30;1.20;;;;;;;;;;5016845;28;20409;-77
2023/10/13 16:55:00;;;;;;;1.27;1.17;;;;;;;;;;5016542;28;20036;-76
2023/10/13 16:57:26;;;;;;;1.92;1.20;;;;;;;;;;5017076;28;20030;-76
2023/10/13 16:59:52;;;;;;;1.77;1.48;;;;;;;;;;4999997;28;20022;-75
2023/10/13 17:02:19;;;;;;;1.40;1.30;;;;;;;;;;5017114;28;20422;-76
2023/10/13 17:04:45;;;;;;;1.83;1.38;;;;;;;;;;5017256;28;20109;-76
2023/10/13 17:07:14;;;;;;;1.33;1.20;;;;;;;;;;5017966;28;20030;-77
2023/10/13 17:09:40;;;;;;;2.22;1.70;;;;;;;;;;5000800;28;20021;-77
2023/10/13 17:12:06;;;;;;;1.30;1.15;;;;;;;;;;5018305;28;20029;-77
2023/10/13 17:14:32;;;;;;;1.45;1.35;;;;;;;;;;5016833;28;20072;-76
2023/10/13 17:16:58;;;;;;;2.05;1.85;;;;;;;;;;5017861;28;20022;-76
2023/10/13 17:19:24;;;;;;;1.35;1.25;;;;;;;;;;5016792;28;20436;-78
2023/10/13 17:21:50;;;;;;;1.83;1.73;;;;;;;;;;5017163;28;20018;-76
2023/10/13 17:24:19;;;;;;;1.27;1.17;;;;;;;;;;5016554;28;20158;-76
2023/10/13 17:26:49;;;;;;;1.83;1.00;;;;;;;;;;5016850;28;20481;-75
2023/10/13 17:29:15;;;;;;;1.40;1.30;;;;;;;;;;5016994;28;20504;-76
2023/10/13 17:31:41;;;;;;;1.40;1.27;;;;;;;;;;5016656;28;20061;-76
2023/10/13 17:34:10;;;;;;;1.02;1.02;;;;;;;;;;5019219;28;20089;-76
2023/10/13 17:36:38;;;;;;;0.80;0.80;;;;;;;;;;5017793;28;20037;-76
2023/10/13 17:39:08;;;;;;;1.25;1.15;;;;;;;;;;5017685;28;20378;-77
2023/10/13 17:41:34;;;;;;;0.95;0.95;;;;;;;;;;5018501;28;20121;-76
2023/10/13 17:44:03;;;;;;;1.20;1.20;;;;;;;;;;5037388;28;20026;-75
2023/10/13 17:46:29;;;;;;;1.60;1.27;;;;;;;;;;5037988;28;20026;-77
2023/10/13 17:48:55;;;;;;;1.05;0.93;;;;;;;;;;5038643;28;20073;-76
2023/10/13 17:51:23;;;;;;;1.13;1.08;;;;;;;;;;5021696;28;20022;-75
2023/10/13 17:53:49;;;;;;;1.10;1.10;;;;;;;;;;5037335;28;20013;-77
2023/10/13 17:56:19;;;;;;;1.20;1.10;;;;;;;;;;5016397;28;20038;-76
2023/10/13 17:58:45;;;;;;;1.15;1.05;;;;;;;;;;5015220;28;20034;-76
2023/10/13 18:01:22;;;;;;;1.05;1.05;;;;;;;;;;5014785;28;20022;-76
2023/10/13 18:03:52;;;;;;;1.40;1.30;;;;;;;;;;5015100;28;20105;-77
2023/10/13 18:06:19;;;;;;;1.15;1.13;;;;;;;;;;5015032;28;20448;-77
2023/10/13 18:08:49;;;;;;;0.80;0.80;;;;;;;;;;4997540;28;20026;-76
2023/10/13 18:11:15;;;;;;;1.20;1.10;;;;;;;;;;5014738;28;20021;-77
2023/10/13 18:13:42;;;;;;;1.20;1.10;;;;;;;;;;5015326;28;20084;-76
2023/10/13 18:16:14;;;;;;;1.13;1.02;;;;;;;;;;5015238;28;20045;-77
2023/10/13 18:18:41;;;;;;;1.40;1.30;;;;;;;;;;5015532;28;20084;-77
2023/10/13 18:21:11;;;;;;;1.42;1.33;;;;;;;;;;5015704;28;20044;-78
2023/10/13 18:23:40;;;;;;;1.33;1.23;;;;;;;;;;4998794;28;20065;-78
2023/10/13 18:26:06;;;;;;;1.50;1.40;;;;;;;;;;5021320;28;20069;-75
2023/10/13 18:28:35;;;;;;;1.42;1.10;;;;;;;;;;5018159;28;20033;-77
2023/10/13 18:31:05;;;;;;;1.30;1.20;;;;;;;;;;5016810;28;20348;-77
2023/10/13 18:33:34;;;;;;;1.58;1.45;;;;;;;;;;5015696;28;20057;-77
2023/10/13 18:36:19;;;;;;;1.60;1.50;;;;;;;;;;5017002;28;20025;-78
2023/10/13 18:38:49;;;;;;;1.05;1.00;;;;;;;;;;5015580;28;20032;-77
2023/10/13 18:41:18;;;;;;;1.02;1.02;;;;;;;;;;5015343;28;20030;-76
2023/10/13 18:43:44;;;;;;;1.10;1.10;;;;;;;;;;5015286;28;20045;-76
2023/10/13 18:46:10;;;;;;;1.30;1.20;;;;;;;;;;5014426;28;20142;-78
2023/10/13 18:48:37;;;;;;;1.33;1.23;;;;;;;;;;5014181;28;20037;-76